sensor_id;sensor_type;location;lat;lon;timestamp;pressure;altitude;pressure_sealevel;temperature;humidity
64933;BME280;51446;53.850;10.662;2023-09-19T00:02:01;100212.78;;;17.05;100.00
64933;BME280;51446;53.850;10.662;2023-09-19T00:04:31;100204.81;;;17.07;100.00
64933;BME280;51446;53.850;10.662;2023-09-19T00:06:57;100213.84;;;16.96;100.00
64933;BME280;51446;53.850;10.662;2023-09-19T00:09:23;100211.84;;;17.08;100.00
64933;BME280;51446;53.850;10.662;2023-09-19T00:11:51;100195.34;;;16.95;100.00
64933;BME280;51446;53.850;10.662;2023-09-19T00:14:16;100207.72;;;16.94;100.00
64933;BME280;51446;53.850;10.662;2023-09-19T00:16:42;100200.84;;;16.81;100.00
64933;BME280;51446;53.850;10.662;2023-09-19T00:19:07;100206.00;;;16.92;100.00
64933;BME280;51446;53.850;10.662;2023-09-19T00:21:34;100200.44;;;17.06;100.00
64933;BME280;51446;53.850;10.662;2023-09-19T00:24:00;100201.50;;;16.97;100.00
64933;BME280;51446;53.850;10.662;2023-09-19T00:26:26;100201.53;;;16.94;100.00
64933;BME280;51446;53.850;10.662;2023-09-19T00:28:54;100208.50;;;16.98;100.00
64933;BME280;51446;53.850;10.662;2023-09-19T00:31:19;100209.59;;;16.88;100.00
64933;BME280;51446;53.850;10.662;2023-09-19T00:33:44;100209.63;;;16.85;100.00
64933;BME280;51446;53.850;10.662;2023-09-19T00:36:09;100204.16;;;16.94;100.00
64933;BME280;51446;53.850;10.662;2023-09-19T00:38:35;100204.03;;;17.02;100.00
64933;BME280;51446;53.850;10.662;2023-09-19T00:41:00;100196.19;;;16.95;100.00
64933;BME280;51446;53.850;10.662;2023-09-19T00:43:25;100214.00;;;16.89;100.00
64933;BME280;51446;53.850;10.662;2023-09-19T00:45:53;100218.75;;;16.70;100.00
64933;BME280;51446;53.850;10.662;2023-09-19T00:48:21;100221.06;;;16.88;100.00
64933;BME280;51446;53.850;10.662;2023-09-19T00:50:48;100217.59;;;16.83;100.00
64933;BME280;51446;53.850;10.662;2023-09-19T00:53:18;100226.47;;;16.80;100.00
64933;BME280;51446;53.850;10.662;2023-09-19T00:55:46;100231.94;;;16.71;100.00
64933;BME280;51446;53.850;10.662;2023-09-19T00:58:11;100216.09;;;16.70;100.00
64933;BME280;51446;53.850;10.662;2023-09-19T01:00:37;100231.94;;;16.71;100.00
64933;BME280;51446;53.850;10.662;2023-09-19T01:03:03;100225.91;;;16.63;100.00
64933;BME280;51446;53.850;10.662;2023-09-19T01:05:29;100221.50;;;16.62;100.00
64933;BME280;51446;53.850;10.662;2023-09-19T01:07:55;100223.97;;;16.73;100.00
64933;BME280;51446;53.850;10.662;2023-09-19T01:10:21;100215.22;;;16.68;100.00
64933;BME280;51446;53.850;10.662;2023-09-19T01:13:05;100224.47;;;16.43;100.00
64933;BME280;51446;53.850;10.662;2023-09-19T01:20:57;100231.16;;;16.66;100.00
64933;BME280;51446;53.850;10.662;2023-09-19T01:23:49;100237.47;;;16.57;100.00
64933;BME280;51446;53.850;10.662;2023-09-19T01:26:56;100235.97;;;16.42;100.00
64933;BME280;51446;53.850;10.662;2023-09-19T01:29:42;100240.47;;;16.37;100.00
64933;BME280;51446;53.850;10.662;2023-09-19T01:32:10;100242.75;;;16.59;100.00
64933;BME280;51446;53.850;10.662;2023-09-19T01:34:49;100242.75;;;16.59;100.00
64933;BME280;51446;53.850;10.662;2023-09-19T01:37:15;100244.59;;;16.55;100.00
64933;BME280;51446;53.850;10.662;2023-09-19T01:39:49;100243.59;;;16.61;100.00
64933;BME280;51446;53.850;10.662;2023-09-19T01:45:13;100231.34;;;16.55;100.00
64933;BME280;51446;53.850;10.662;2023-09-19T01:47:52;100239.28;;;16.55;100.00
64933;BME280;51446;53.850;10.662;2023-09-19T01:50:44;100237.41;;;16.62;100.00
64933;BME280;51446;53.850;10.662;2023-09-19T01:53:19;100240.31;;;16.45;100.00
64933;BME280;51446;53.850;10.662;2023-09-19T01:55:48;100239.22;;;16.58;100.00
64933;BME280;51446;53.850;10.662;2023-09-19T01:58:34;100232.41;;;16.43;100.00
64933;BME280;51446;53.850;10.662;2023-09-19T02:01:01;100234.78;;;16.60;100.00
64933;BME280;51446;53.850;10.662;2023-09-19T02:03:26;100232.19;;;16.57;100.00
64933;BME280;51446;53.850;10.662;2023-09-19T02:05:54;100234.88;;;16.56;100.00
64933;BME280;51446;53.850;10.662;2023-09-19T02:08:20;100242.75;;;16.59;100.00
64933;BME280;51446;53.850;10.662;2023-09-19T02:10:49;100249.25;;;16.38;100.00
64933;BME280;51446;53.850;10.662;2023-09-19T02:13:16;100249.16;;;16.45;100.00
64933;BME280;51446;53.850;10.662;2023-09-19T02:15:42;100242.09;;;16.44;100.00
64933;BME280;51446;53.850;10.662;2023-09-19T02:18:09;100248.50;;;16.33;100.00
64933;BME280;51446;53.850;10.662;2023-09-19T02:20:34;100244.09;;;16.32;100.00
64933;BME280;51446;53.850;10.662;2023-09-19T02:23:00;100263.16;;;16.52;100.00
64933;BME280;51446;53.850;10.662;2023-09-19T02:25:25;100256.28;;;16.40;100.00
64933;BME280;51446;53.850;10.662;2023-09-19T02:27:51;100268.03;;;16.24;100.00
64933;BME280;51446;53.850;10.662;2023-09-19T02:30:19;100258.25;;;16.27;100.00
64933;BME280;51446;53.850;10.662;2023-09-19T02:32:46;100275.88;;;16.30;100.00
64933;BME280;51446;53.850;10.662;2023-09-19T02:35:11;100272.56;;;16.16;100.00
64933;BME280;51446;53.850;10.662;2023-09-19T02:37:37;100277.72;;;16.23;100.00
64933;BME280;51446;53.850;10.662;2023-09-19T02:40:03;100271.78;;;16.07;100.00
64933;BME280;51446;53.850;10.662;2023-09-19T02:42:30;100287.41;;;16.24;100.00
64933;BME280;51446;53.850;10.662;2023-09-19T02:44:55;100284.03;;;16.15;100.00
64933;BME280;51446;53.850;10.662;2023-09-19T02:47:21;100289.31;;;16.15;100.00
64933;BME280;51446;53.850;10.662;2023-09-19T02:49:47;100278.00;;;16.06;100.00
64933;BME280;51446;53.850;10.662;2023-09-19T02:52:13;100281.91;;;15.77;100.00
64933;BME280;51446;53.850;10.662;2023-09-19T02:54:56;100288.94;;;15.78;100.00
64933;BME280;51446;53.850;10.662;2023-09-19T02:57:21;100283.66;;;15.78;100.00
64933;BME280;51446;53.850;10.662;2023-09-19T02:59:47;100299.47;;;15.85;100.00
64933;BME280;51446;53.850;10.662;2023-09-19T03:02:12;100291.78;;;15.63;100.00
64933;BME280;51446;53.850;10.662;2023-09-19T03:04:37;100297.91;;;15.65;100.00
64933;BME280;51446;53.850;10.662;2023-09-19T03:07:03;100301.53;;;15.56;100.00
64933;BME280;51446;53.850;10.662;2023-09-19T03:09:29;100280.66;;;15.36;100.00
64933;BME280;51446;53.850;10.662;2023-09-19T03:11:54;100307.75;;;15.54;100.00
64933;BME280;51446;53.850;10.662;2023-09-19T03:14:20;100302.41;;;15.57;100.00
64933;BME280;51446;53.850;10.662;2023-09-19T03:16:45;100286.66;;;15.49;100.00
64933;BME280;51446;53.850;10.662;2023-09-19T03:19:10;100288.38;;;15.53;100.00
64933;BME280;51446;53.850;10.662;2023-09-19T03:21:36;100292.81;;;15.48;100.00
64933;BME280;51446;53.850;10.662;2023-09-19T03:24:01;100299.03;;;15.46;100.00
64933;BME280;51446;53.850;10.662;2023-09-19T03:26:27;100295.50;;;15.47;100.00
64933;BME280;51446;53.850;10.662;2023-09-19T03:28:53;100302.56;;;15.44;100.00
64933;BME280;51446;53.850;10.662;2023-09-19T03:31:19;100308.69;;;15.48;100.00
64933;BME280;51446;53.850;10.662;2023-09-19T03:33:44;100298.09;;;15.50;100.00
64933;BME280;51446;53.850;10.662;2023-09-19T03:36:09;100293.63;;;15.55;100.00
64933;BME280;51446;53.850;10.662;2023-09-19T03:38:34;100296.13;;;15.69;100.00
64933;BME280;51446;53.850;10.662;2023-09-19T03:41:01;100288.47;;;15.44;100.00
64933;BME280;51446;53.850;10.662;2023-09-19T03:43:26;100304.22;;;15.55;100.00
64933;BME280;51446;53.850;10.662;2023-09-19T03:45:52;100303.34;;;15.51;100.00
64933;BME280;51446;53.850;10.662;2023-09-19T03:48:19;100303.19;;;15.67;100.00
64933;BME280;51446;53.850;10.662;2023-09-19T03:50:44;100289.97;;;15.65;100.00
64933;BME280;51446;53.850;10.662;2023-09-19T03:53:10;100301.34;;;15.73;100.00
64933;BME280;51446;53.850;10.662;2023-09-19T03:55:35;100300.44;;;15.76;100.00
64933;BME280;51446;53.850;10.662;2023-09-19T03:58:01;100307.50;;;15.74;100.00
64933;BME280;51446;53.850;10.662;2023-09-19T04:00:26;100313.75;;;15.67;100.00
64933;BME280;51446;53.850;10.662;2023-09-19T04:02:52;100319.00;;;15.70;100.00
64933;BME280;51446;53.850;10.662;2023-09-19T04:05:18;100309.22;;;15.80;100.00
64933;BME280;51446;53.850;10.662;2023-09-19T04:07:43;100318.16;;;15.68;100.00
64933;BME280;51446;53.850;10.662;2023-09-19T04:10:09;100325.91;;;15.85;100.00
64933;BME280;51446;53.850;10.662;2023-09-19T04:12:36;100327.78;;;15.72;100.00
64933;BME280;51446;53.850;10.662;2023-09-19T04:15:02;100312.97;;;15.57;100.00
64933;BME280;51446;53.850;10.662;2023-09-19T04:17:27;100319.06;;;15.65;100.00
64933;BME280;51446;53.850;10.662;2023-09-19T04:19:52;100331.41;;;15.65;100.00
64933;BME280;51446;53.850;10.662;2023-09-19T04:22:18;100333.13;;;15.69;100.00
64933;BME280;51446;53.850;10.662;2023-09-19T04:24:43;100330.66;;;15.53;100.00
64933;BME280;51446;53.850;10.662;2023-09-19T04:27:09;100348.25;;;15.57;100.00
64933;BME280;51446;53.850;10.662;2023-09-19T04:29:35;100328.88;;;15.54;100.00
64933;BME280;51446;53.850;10.662;2023-09-19T04:32:00;100334.16;;;15.55;100.00
64933;BME280;51446;53.850;10.662;2023-09-19T04:34:25;100333.31;;;15.52;100.00
64933;BME280;51446;53.850;10.662;2023-09-19T04:36:51;100336.88;;;15.48;100.00
64933;BME280;51446;53.850;10.662;2023-09-19T04:39:17;100358.00;;;15.51;100.00
64933;BME280;51446;53.850;10.662;2023-09-19T04:41:43;100355.44;;;15.44;100.00
64933;BME280;51446;53.850;10.662;2023-09-19T04:44:10;100344.16;;;15.27;100.00
64933;BME280;51446;53.850;10.662;2023-09-19T04:46:35;100366.00;;;15.44;100.00
64933;BME280;51446;53.850;10.662;2023-09-19T04:49:02;100347.66;;;15.29;100.00
64933;BME280;51446;53.850;10.662;2023-09-19T04:51:29;100380.16;;;15.37;100.00
64933;BME280;51446;53.850;10.662;2023-09-19T04:54:01;100381.94;;;15.35;100.00
64933;BME280;51446;53.850;10.662;2023-09-19T04:56:26;100373.25;;;15.21;100.00
64933;BME280;51446;53.850;10.662;2023-09-19T04:58:53;100394.31;;;15.30;100.00
64933;BME280;51446;53.850;10.662;2023-09-19T05:01:19;100398.69;;;15.31;100.00
64933;BME280;51446;53.850;10.662;2023-09-19T05:03:44;100398.59;;;15.42;100.00
64933;BME280;51446;53.850;10.662;2023-09-19T05:06:10;100407.56;;;15.29;100.00
64933;BME280;51446;53.850;10.662;2023-09-19T05:08:35;100399.66;;;15.27;100.00
64933;BME280;51446;53.850;10.662;2023-09-19T05:11:03;100403.16;;;15.26;100.00
64933;BME280;51446;53.850;10.662;2023-09-19T05:13:28;100406.78;;;15.16;100.00
64933;BME280;51446;53.850;10.662;2023-09-19T05:15:54;100418.19;;;15.19;100.00
64933;BME280;51446;53.850;10.662;2023-09-19T05:18:19;100420.88;;;15.13;100.00
64933;BME280;51446;53.850;10.662;2023-09-19T05:20:44;100427.97;;;15.11;100.00
64933;BME280;51446;53.850;10.662;2023-09-19T05:23:10;100434.09;;;15.13;100.00
64933;BME280;51446;53.850;10.662;2023-09-19T05:25:39;100427.09;;;15.06;100.00
64933;BME280;51446;53.850;10.662;2023-09-19T05:28:09;100412.13;;;15.06;100.00
64933;BME280;51446;53.850;10.662;2023-09-19T05:30:36;100424.56;;;14.94;100.00
64933;BME280;51446;53.850;10.662;2023-09-19T05:33:04;100426.38;;;14.87;100.00
64933;BME280;51446;53.850;10.662;2023-09-19T05:35:29;100416.78;;;14.73;100.00
64933;BME280;51446;53.850;10.662;2023-09-19T05:37:55;100438.75;;;14.80;100.00
64933;BME280;51446;53.850;10.662;2023-09-19T05:40:21;100448.38;;;14.87;100.00
64933;BME280;51446;53.850;10.662;2023-09-19T05:42:46;100447.44;;;14.93;100.00
64933;BME280;51446;53.850;10.662;2023-09-19T05:45:12;100445.66;;;14.98;100.00
64933;BME280;51446;53.850;10.662;2023-09-19T05:47:41;100439.53;;;14.93;100.00
64933;BME280;51446;53.850;10.662;2023-09-19T05:50:08;100422.13;;;14.64;100.00
64933;BME280;51446;53.850;10.662;2023-09-19T05:52:37;100424.66;;;14.81;100.00
64933;BME280;51446;53.850;10.662;2023-09-19T05:55:06;100399.25;;;14.63;100.00
64933;BME280;51446;53.850;10.662;2023-09-19T05:57:33;100450.94;;;14.98;100.00
64933;BME280;51446;53.850;10.662;2023-09-19T05:59:58;100445.69;;;14.97;100.00
64933;BME280;51446;53.850;10.662;2023-09-19T06:02:24;100436.06;;;14.85;100.00
64933;BME280;51446;53.850;10.662;2023-09-19T06:04:50;100456.16;;;15.07;100.00
64933;BME280;51446;53.850;10.662;2023-09-19T06:07:18;100446.34;;;15.22;100.00
64933;BME280;51446;53.850;10.662;2023-09-19T06:09:43;100444.50;;;15.32;100.00
64933;BME280;51446;53.850;10.662;2023-09-19T06:12:08;100450.66;;;15.32;100.00
64933;BME280;51446;53.850;10.662;2023-09-19T06:14:33;100438.34;;;15.28;100.00
64933;BME280;51446;53.850;10.662;2023-09-19T06:16:59;100442.34;;;15.71;100.00
64933;BME280;51446;53.850;10.662;2023-09-19T06:19:25;100442.41;;;15.66;100.00
64933;BME280;51446;53.850;10.662;2023-09-19T06:21:52;100427.97;;;16.00;100.00
64933;BME280;51446;53.850;10.662;2023-09-19T06:24:18;100440.16;;;16.10;100.00
64933;BME280;51446;53.850;10.662;2023-09-19T06:26:44;100458.53;;;16.86;100.00
64933;BME280;51446;53.850;10.662;2023-09-19T06:29:10;100450.78;;;17.80;100.00
64933;BME280;51446;53.850;10.662;2023-09-19T06:31:35;100464.44;;;18.07;100.00
64933;BME280;51446;53.850;10.662;2023-09-19T06:34:00;100466.13;;;18.53;100.00
64933;BME280;51446;53.850;10.662;2023-09-19T06:36:25;100469.47;;;19.02;100.00
64933;BME280;51446;53.850;10.662;2023-09-19T06:38:51;100472.41;;;18.89;100.00
64933;BME280;51446;53.850;10.662;2023-09-19T06:41:17;100481.09;;;19.34;99.95
64933;BME280;51446;53.850;10.662;2023-09-19T06:43:42;100469.47;;;19.02;100.00
64933;BME280;51446;53.850;10.662;2023-09-19T06:46:09;100467.47;;;18.32;100.00
64933;BME280;51446;53.850;10.662;2023-09-19T06:48:34;100486.50;;;18.09;100.00
64933;BME280;51446;53.850;10.662;2023-09-19T06:51:00;100470.66;;;17.56;100.00
64933;BME280;51446;53.850;10.662;2023-09-19T06:53:27;100482.28;;;17.48;100.00
64933;BME280;51446;53.850;10.662;2023-09-19T06:55:52;100478.50;;;17.10;100.00
64933;BME280;51446;53.850;10.662;2023-09-19T06:58:18;100490.31;;;16.89;100.00
64933;BME280;51446;53.850;10.662;2023-09-19T07:00:44;100482.59;;;17.30;100.00
64933;BME280;51446;53.850;10.662;2023-09-19T07:03:10;100481.97;;;17.14;100.00
64933;BME280;51446;53.850;10.662;2023-09-19T07:05:39;100494.84;;;17.37;100.00
64933;BME280;51446;53.850;10.662;2023-09-19T07:08:06;100485.25;;;17.80;100.00
64933;BME280;51446;53.850;10.662;2023-09-19T07:10:32;100496.81;;;18.24;100.00
64933;BME280;51446;53.850;10.662;2023-09-19T07:13:06;100496.16;;;18.13;100.00
64933;BME280;51446;53.850;10.662;2023-09-19T07:15:34;100491.41;;;17.83;100.00
64933;BME280;51446;53.850;10.662;2023-09-19T07:18:01;100503.16;;;18.17;100.00
64933;BME280;51446;53.850;10.662;2023-09-19T07:20:27;100509.38;;;17.67;100.00
64933;BME280;51446;53.850;10.662;2023-09-19T07:22:54;100498.09;;;17.55;100.00
64933;BME280;51446;53.850;10.662;2023-09-19T07:25:20;100511.31;;;17.03;100.00
64933;BME280;51446;53.850;10.662;2023-09-19T07:27:45;100507.56;;;17.16;100.00
64933;BME280;51446;53.850;10.662;2023-09-19T07:30:11;100523.25;;;16.67;100.00
64933;BME280;51446;53.850;10.662;2023-09-19T07:32:37;100512.69;;;16.63;100.00
64933;BME280;51446;53.850;10.662;2023-09-19T07:35:03;100524.22;;;16.62;100.00
64933;BME280;51446;53.850;10.662;2023-09-19T07:37:29;100518.16;;;16.51;100.00
64933;BME280;51446;53.850;10.662;2023-09-19T07:39:56;100520.72;;;16.57;100.00
64933;BME280;51446;53.850;10.662;2023-09-19T07:42:21;100527.50;;;16.80;100.00
64933;BME280;51446;53.850;10.662;2023-09-19T07:44:47;100527.31;;;16.94;100.00
64933;BME280;51446;53.850;10.662;2023-09-19T07:47:14;100530.63;;;17.11;100.00
64933;BME280;51446;53.850;10.662;2023-09-19T07:49:39;100531.38;;;17.18;100.00
64933;BME280;51446;53.850;10.662;2023-09-19T07:52:06;100520.66;;;18.69;100.00
64933;BME280;51446;53.850;10.662;2023-09-19T07:54:31;100529.03;;;19.31;100.00
64933;BME280;51446;53.850;10.662;2023-09-19T07:57:00;100520.66;;;18.69;100.00
64933;BME280;51446;53.850;10.662;2023-09-19T07:59:25;100529.41;;;18.32;100.00
64933;BME280;51446;53.850;10.662;2023-09-19T08:01:51;100526.56;;;17.96;100.00
64933;BME280;51446;53.850;10.662;2023-09-19T08:04:17;100525.03;;;17.81;100.00
64933;BME280;51446;53.850;10.662;2023-09-19T08:06:42;100528.19;;;17.52;100.00
64933;BME280;51446;53.850;10.662;2023-09-19T08:09:09;100518.78;;;17.32;100.00
64933;BME280;51446;53.850;10.662;2023-09-19T08:11:36;100539.66;;;17.52;100.00
64933;BME280;51446;53.850;10.662;2023-09-19T08:14:01;100531.22;;;17.29;100.00
64933;BME280;51446;53.850;10.662;2023-09-19T08:16:26;100522.63;;;17.13;100.00
64933;BME280;51446;53.850;10.662;2023-09-19T08:18:52;100544.91;;;16.98;100.00
64933;BME280;51446;53.850;10.662;2023-09-19T08:21:20;100526.78;;;16.67;100.00
64933;BME280;51446;53.850;10.662;2023-09-19T08:23:45;100538.16;;;16.75;100.00
64933;BME280;51446;53.850;10.662;2023-09-19T08:26:10;100540.59;;;16.91;100.00
64933;BME280;51446;53.850;10.662;2023-09-19T08:28:36;100535.38;;;16.85;100.00
64933;BME280;51446;53.850;10.662;2023-09-19T08:31:03;100537.22;;;16.76;100.00
64933;BME280;51446;53.850;10.662;2023-09-19T08:33:35;100537.81;;;17.02;100.00
64933;BME280;51446;53.850;10.662;2023-09-19T08:36:04;100541.50;;;16.91;100.00
64933;BME280;51446;53.850;10.662;2023-09-19T08:38:35;100542.00;;;17.16;100.00
64933;BME280;51446;53.850;10.662;2023-09-19T08:41:05;100541.00;;;17.24;100.00
64933;BME280;51446;53.850;10.662;2023-09-19T08:43:30;100528.13;;;16.99;100.00
64933;BME280;51446;53.850;10.662;2023-09-19T08:46:10;100540.38;;;17.08;100.00
64933;BME280;51446;53.850;10.662;2023-09-19T08:48:39;100543.13;;;17.02;100.00
64933;BME280;51446;53.850;10.662;2023-09-19T08:51:18;100538.00;;;16.88;100.00
64933;BME280;51446;53.850;10.662;2023-09-19T08:54:03;100542.44;;;16.84;100.00
64933;BME280;51446;53.850;10.662;2023-09-19T08:56:29;100535.47;;;16.77;100.00
64933;BME280;51446;53.850;10.662;2023-09-19T08:58:57;100538.78;;;16.96;100.00
64933;BME280;51446;53.850;10.662;2023-09-19T09:01:27;100538.00;;;16.85;100.00
64933;BME280;51446;53.850;10.662;2023-09-19T09:03:53;100545.63;;;17.09;100.00
64933;BME280;51446;53.850;10.662;2023-09-19T09:06:20;100539.78;;;16.86;100.00
64933;BME280;51446;53.850;10.662;2023-09-19T09:08:46;100544.06;;;16.96;100.00
64933;BME280;51446;53.850;10.662;2023-09-19T09:11:15;100543.09;;;17.03;100.00
64933;BME280;51446;53.850;10.662;2023-09-19T09:13:42;100545.16;;;16.78;100.00
64933;BME280;51446;53.850;10.662;2023-09-19T09:16:08;100553.13;;;16.76;100.00
64933;BME280;51446;53.850;10.662;2023-09-19T09:18:34;100561.13;;;16.72;100.00
64933;BME280;51446;53.850;10.662;2023-09-19T09:21:00;100568.16;;;16.76;100.00
64933;BME280;51446;53.850;10.662;2023-09-19T09:23:26;100575.06;;;16.86;100.00
64933;BME280;51446;53.850;10.662;2023-09-19T09:25:55;100572.63;;;16.69;100.00
64933;BME280;51446;53.850;10.662;2023-09-19T09:28:27;100574.84;;;17.06;100.00
64933;BME280;51446;53.850;10.662;2023-09-19T09:30:54;100575.75;;;17.04;100.00
64933;BME280;51446;53.850;10.662;2023-09-19T09:33:19;100575.78;;;17.02;100.00
64933;BME280;51446;53.850;10.662;2023-09-19T09:35:53;100563.41;;;17.01;100.00
64933;BME280;51446;53.850;10.662;2023-09-19T09:38:22;100577.50;;;17.05;100.00
64933;BME280;51446;53.850;10.662;2023-09-19T09:40:54;100581.13;;;16.99;100.00
64933;BME280;51446;53.850;10.662;2023-09-19T09:43:34;100569.50;;;17.08;100.00
64933;BME280;51446;53.850;10.662;2023-09-19T09:46:08;100573.63;;;17.29;100.00
64933;BME280;51446;53.850;10.662;2023-09-19T09:51:45;100579.06;;;17.18;100.00
64933;BME280;51446;53.850;10.662;2023-09-19T09:54:23;100589.53;;;17.29;100.00
64933;BME280;51446;53.850;10.662;2023-09-19T09:57:08;100591.19;;;17.36;100.00
64933;BME280;51446;53.850;10.662;2023-09-19T09:59:52;100589.78;;;17.69;100.00
64933;BME280;51446;53.850;10.662;2023-09-19T10:02:30;100595.75;;;17.82;100.00
64933;BME280;51446;53.850;10.662;2023-09-19T10:05:12;100583.88;;;18.07;100.00
64933;BME280;51446;53.850;10.662;2023-09-19T10:07:52;100580.47;;;18.44;100.00
64933;BME280;51446;53.850;10.662;2023-09-19T10:10:38;100589.66;;;18.71;100.00
64933;BME280;51446;53.850;10.662;2023-09-19T10:13:07;100581.13;;;18.57;100.00
64933;BME280;51446;53.850;10.662;2023-09-19T10:15:33;100592.59;;;19.02;99.18
64933;BME280;51446;53.850;10.662;2023-09-19T10:18:04;100595.63;;;19.26;95.36
64933;BME280;51446;53.850;10.662;2023-09-19T10:20:30;100597.00;;;19.03;98.31
64933;BME280;51446;53.850;10.662;2023-09-19T10:22:56;100601.22;;;19.12;95.58
64933;BME280;51446;53.850;10.662;2023-09-19T10:25:26;100592.66;;;19.74;92.37
64933;BME280;51446;53.850;10.662;2023-09-19T10:28:02;100605.34;;;19.26;94.51
64933;BME280;51446;53.850;10.662;2023-09-19T10:30:32;100606.81;;;19.40;93.16
64933;BME280;51446;53.850;10.662;2023-09-19T10:33:03;100593.38;;;19.45;91.11
64933;BME280;51446;53.850;10.662;2023-09-19T10:35:29;100603.72;;;19.20;92.29
64933;BME280;51446;53.850;10.662;2023-09-19T10:37:58;100583.13;;;19.66;91.44
64933;BME280;51446;53.850;10.662;2023-09-19T10:40:24;100588.41;;;20.36;88.91
64933;BME280;51446;53.850;10.662;2023-09-19T10:43:00;100591.97;;;20.35;86.44
64933;BME280;51446;53.850;10.662;2023-09-19T10:45:28;100599.78;;;20.43;84.78
64933;BME280;51446;53.850;10.662;2023-09-19T10:47:54;100591.31;;;20.60;82.52
64933;BME280;51446;53.850;10.662;2023-09-19T10:50:21;100587.19;;;20.15;82.41
64933;BME280;51446;53.850;10.662;2023-09-19T10:52:47;100578.97;;;20.87;80.74
64933;BME280;51446;53.850;10.662;2023-09-19T10:55:19;100585.56;;;20.42;82.40
64933;BME280;51446;53.850;10.662;2023-09-19T10:57:46;100583.13;;;20.35;79.14
64933;BME280;51446;53.850;10.662;2023-09-19T11:00:12;100583.06;;;20.69;77.50
64933;BME280;51446;53.850;10.662;2023-09-19T11:05:42;100580.22;;;22.14;69.73
64933;BME280;51446;53.850;10.662;2023-09-19T11:08:08;100583.91;;;21.85;67.44
64933;BME280;51446;53.850;10.662;2023-09-19T11:10:50;100581.53;;;21.48;68.34
64933;BME280;51446;53.850;10.662;2023-09-19T11:13:29;100582.88;;;21.05;70.65
64933;BME280;51446;53.850;10.662;2023-09-19T11:26:49;100574.19;;;20.04;75.74
64933;BME280;51446;53.850;10.662;2023-09-19T11:29:29;100576.59;;;19.81;76.58
64933;BME280;51446;53.850;10.662;2023-09-19T11:31:56;100566.34;;;19.64;76.97
64933;BME280;51446;53.850;10.662;2023-09-19T11:34:37;100586.22;;;19.47;79.46
64933;BME280;51446;53.850;10.662;2023-09-19T11:39:36;100574.88;;;20.44;79.32
64933;BME280;51446;53.850;10.662;2023-09-19T11:42:41;100573.78;;;20.51;77.10
64933;BME280;51446;53.850;10.662;2023-09-19T11:48:12;100581.56;;;20.59;80.64
64933;BME280;51446;53.850;10.662;2023-09-19T11:50:39;100577.13;;;19.95;83.12
64933;BME280;51446;53.850;10.662;2023-09-19T11:53:09;100574.44;;;19.57;83.56
64933;BME280;51446;53.850;10.662;2023-09-19T11:55:36;100581.03;;;19.42;84.80
64933;BME280;51446;53.850;10.662;2023-09-19T11:58:03;100586.81;;;19.22;86.11
64933;BME280;51446;53.850;10.662;2023-09-19T12:00:30;100571.88;;;19.17;88.00
64933;BME280;51446;53.850;10.662;2023-09-19T12:02:59;100581.06;;;19.41;87.72
64933;BME280;51446;53.850;10.662;2023-09-19T12:05:29;100585.03;;;19.23;87.17
64933;BME280;51446;53.850;10.662;2023-09-19T12:07:54;100584.81;;;18.93;89.41
64933;BME280;51446;53.850;10.662;2023-09-19T12:10:20;100587.25;;;19.02;90.84
64933;BME280;51446;53.850;10.662;2023-09-19T12:12:48;100590.59;;;18.70;92.39
64933;BME280;51446;53.850;10.662;2023-09-19T12:15:14;100586.72;;;18.86;93.21
64933;BME280;51446;53.850;10.662;2023-09-19T12:17:41;100584.50;;;19.45;91.07
64933;BME280;51446;53.850;10.662;2023-09-19T12:20:08;100563.63;;;20.01;88.38
64933;BME280;51446;53.850;10.662;2023-09-19T12:22:44;100562.53;;;19.74;84.85
64933;BME280;51446;53.850;10.662;2023-09-19T12:25:13;100572.81;;;19.89;85.86
64933;BME280;51446;53.850;10.662;2023-09-19T12:27:46;100573.88;;;19.46;87.30
64933;BME280;51446;53.850;10.662;2023-09-19T12:30:12;100571.38;;;19.38;87.40
64933;BME280;51446;53.850;10.662;2023-09-19T12:32:43;100579.25;;;19.04;87.31
64933;BME280;51446;53.850;10.662;2023-09-19T12:35:09;100564.56;;;18.87;89.65
64933;BME280;51446;53.850;10.662;2023-09-19T12:37:43;100567.34;;;18.80;89.75
64933;BME280;51446;53.850;10.662;2023-09-19T12:40:13;100571.41;;;18.99;88.37
64933;BME280;51446;53.850;10.662;2023-09-19T12:42:47;100576.34;;;19.16;87.63
64933;BME280;51446;53.850;10.662;2023-09-19T12:45:14;100564.66;;;19.23;88.08
64933;BME280;51446;53.850;10.662;2023-09-19T12:47:40;100574.84;;;19.04;87.22
64933;BME280;51446;53.850;10.662;2023-09-19T12:50:25;100573.56;;;19.21;85.60
64933;BME280;51446;53.850;10.662;2023-09-19T12:52:55;100576.03;;;19.29;82.65
64933;BME280;51446;53.850;10.662;2023-09-19T12:55:28;100585.22;;;19.53;84.68
64933;BME280;51446;53.850;10.662;2023-09-19T13:00:37;100574.19;;;19.68;82.15
64933;BME280;51446;53.850;10.662;2023-09-19T13:03:32;100582.75;;;19.45;82.26
64933;BME280;51446;53.850;10.662;2023-09-19T13:06:01;100582.56;;;19.53;82.76
64933;BME280;51446;53.850;10.662;2023-09-19T13:08:48;100580.28;;;19.36;83.76
64933;BME280;51446;53.850;10.662;2023-09-19T13:11:38;100586.34;;;19.42;84.66
64933;BME280;51446;53.850;10.662;2023-09-19T13:14:23;100584.34;;;19.52;83.50